createdAt,value
2023-04-09T00:02:21.981Z,17.60
2023-04-09T00:04:52.413Z,17.70
2023-04-09T00:07:23.665Z,17.60
2023-04-09T00:09:55.258Z,17.70
2023-04-09T00:12:26.610Z,17.70
2023-04-09T00:14:57.927Z,17.60
2023-04-09T00:17:29.357Z,17.60
2023-04-09T00:19:59.811Z,17.60
2023-04-09T00:22:27.462Z,17.60
2023-04-09T00:24:56.600Z,17.60
2023-04-09T00:27:29.504Z,17.60
2023-04-09T00:30:00.341Z,17.60
2023-04-09T00:32:28.338Z,17.60
2023-04-09T00:34:59.027Z,17.60
2023-04-09T00:37:30.597Z,17.60
2023-04-09T00:40:00.358Z,17.60
2023-04-09T00:42:32.566Z,17.60
2023-04-09T00:44:59.870Z,17.60
2023-04-09T00:47:29.422Z,17.60
2023-04-09T00:50:03.156Z,17.60
2023-04-09T00:52:35.088Z,17.60
2023-04-09T00:55:09.428Z,17.60
2023-04-09T00:57:42.642Z,17.60
2023-04-09T01:00:13.343Z,17.60
2023-04-09T01:02:47.953Z,17.60
2023-04-09T01:05:15.907Z,17.60
2023-04-09T01:08:15.746Z,17.60
2023-04-09T01:11:19.085Z,17.60
2023-04-09T01:14:15.410Z,17.60
2023-04-09T01:19:55.490Z,17.60
2023-04-09T01:22:52.918Z,17.60
2023-04-09T01:26:19.187Z,17.60
2023-04-09T01:31:43.000Z,17.50
2023-04-09T01:34:15.337Z,17.60
2023-04-09T01:37:05.557Z,17.60
2023-04-09T01:39:57.714Z,17.60
2023-04-09T01:42:29.512Z,17.60
2023-04-09T01:45:00.989Z,17.50
2023-04-09T01:47:32.397Z,17.50
2023-04-09T01:50:04.205Z,17.60
2023-04-09T01:55:18.004Z,17.60
2023-04-09T01:57:46.626Z,17.60
2023-04-09T02:00:21.610Z,17.60
2023-04-09T02:03:33.398Z,17.60
2023-04-09T02:06:18.842Z,17.50
2023-04-09T02:08:55.478Z,17.50
2023-04-09T02:11:30.068Z,17.50
2023-04-09T02:14:00.830Z,17.50
2023-04-09T02:16:38.634Z,17.50
2023-04-09T02:19:10.214Z,17.50
2023-04-09T02:21:40.224Z,17.50
2023-04-09T02:24:10.224Z,17.50
2023-04-09T02:26:40.134Z,17.50
2023-04-09T02:29:10.940Z,17.50
2023-04-09T02:31:42.504Z,17.50
2023-04-09T02:34:16.321Z,17.50
2023-04-09T02:36:48.867Z,17.50
2023-04-09T02:39:16.203Z,17.50
2023-04-09T02:41:46.843Z,17.50
2023-04-09T02:44:16.757Z,17.50
2023-04-09T02:46:49.670Z,17.50
2023-04-09T02:49:19.632Z,17.50
2023-04-09T02:51:47.819Z,17.50
2023-04-09T02:54:19.074Z,17.50
2023-04-09T02:56:50.431Z,17.50
2023-04-09T02:59:19.190Z,17.50
2023-04-09T03:01:52.414Z,17.50
2023-04-09T03:04:24.409Z,17.50
2023-04-09T03:06:52.420Z,17.50
2023-04-09T03:09:23.290Z,17.50
2023-04-09T03:11:53.477Z,17.50
2023-04-09T03:14:24.599Z,17.50
2023-04-09T03:16:57.654Z,17.50
2023-04-09T03:19:27.694Z,17.40
2023-04-09T03:21:59.738Z,17.50
2023-04-09T03:24:28.174Z,17.40
2023-04-09T03:27:01.165Z,17.40
2023-04-09T03:29:33.688Z,17.40
2023-04-09T03:32:01.806Z,17.40
2023-04-09T03:34:30.926Z,17.40
2023-04-09T03:37:02.633Z,17.40
2023-04-09T03:39:33.981Z,17.40
2023-04-09T03:42:04.851Z,17.40
2023-04-09T03:44:33.242Z,17.40
2023-04-09T03:47:06.643Z,17.40
2023-04-09T03:49:40.894Z,17.40
2023-04-09T03:52:11.904Z,17.40
2023-04-09T03:54:42.303Z,17.40
2023-04-09T03:57:13.890Z,17.40
2023-04-09T03:59:43.195Z,17.40
2023-04-09T04:02:14.462Z,17.40
2023-04-09T04:04:46.862Z,17.40
2023-04-09T04:10:11.848Z,17.40
2023-04-09T04:12:42.177Z,17.40
2023-04-09T04:15:11.644Z,17.40
2023-04-09T04:17:46.554Z,17.40
2023-04-09T04:20:22.618Z,17.30
2023-04-09T04:22:53.931Z,17.40
2023-04-09T04:25:30.156Z,17.40
2023-04-09T04:28:01.283Z,17.30
2023-04-09T04:30:30.773Z,17.40
2023-04-09T04:33:01.153Z,17.40
2023-04-09T04:35:33.107Z,17.30
2023-04-09T04:38:03.933Z,17.40
2023-04-09T04:40:33.940Z,17.30
2023-04-09T04:43:03.850Z,17.30
2023-04-09T04:45:33.203Z,17.30
2023-04-09T04:48:02.634Z,17.30
2023-04-09T04:50:29.354Z,17.30
2023-04-09T04:52:58.136Z,17.30
2023-04-09T04:55:28.805Z,17.30
2023-04-09T04:58:00.109Z,17.30
2023-04-09T05:00:28.674Z,17.30
2023-04-09T05:03:00.247Z,17.30
2023-04-09T05:05:30.415Z,17.30
2023-04-09T05:08:00.577Z,17.30
2023-04-09T05:10:28.399Z,17.30
2023-04-09T05:12:56.422Z,17.30
2023-04-09T05:18:10.779Z,17.30
2023-04-09T05:20:42.622Z,17.20
2023-04-09T05:23:14.770Z,17.20
2023-04-09T05:25:41.479Z,17.30
2023-04-09T05:28:16.839Z,17.20
2023-04-09T05:30:50.488Z,17.20
2023-04-09T05:33:19.711Z,17.20
2023-04-09T05:35:50.273Z,17.20
2023-04-09T05:38:20.442Z,17.20
2023-04-09T05:40:51.662Z,17.20
2023-04-09T05:43:21.666Z,17.20
2023-04-09T05:45:53.376Z,17.20
2023-04-09T05:48:24.520Z,17.20
2023-04-09T05:50:55.971Z,17.20
2023-04-09T05:53:35.001Z,17.20
2023-04-09T05:56:01.961Z,17.20
2023-04-09T05:58:32.999Z,17.20
2023-04-09T06:01:03.578Z,17.20
2023-04-09T06:03:34.043Z,17.20
2023-04-09T06:06:03.474Z,17.20
2023-04-09T06:08:33.620Z,17.20
2023-04-09T06:11:06.445Z,17.20
2023-04-09T06:13:36.927Z,17.10
2023-04-09T06:16:12.484Z,17.10
2023-04-09T06:18:44.830Z,17.20
2023-04-09T06:21:15.987Z,17.10
2023-04-09T06:23:54.281Z,17.10
2023-04-09T06:26:29.581Z,17.10
2023-04-09T06:29:00.133Z,17.10
2023-04-09T06:31:41.189Z,17.20
2023-04-09T06:34:20.407Z,17.10
2023-04-09T06:36:51.118Z,17.10
2023-04-09T06:39:22.959Z,17.10
2023-04-09T06:41:55.958Z,17.20
2023-04-09T06:44:31.778Z,17.10
2023-04-09T06:47:00.206Z,17.10
2023-04-09T06:49:30.506Z,17.10
2023-04-09T06:52:00.312Z,17.10
2023-04-09T06:54:31.057Z,17.10
2023-04-09T06:57:04.359Z,17.10
2023-04-09T06:59:38.169Z,17.10
2023-04-09T07:02:10.185Z,17.10
2023-04-09T07:04:40.794Z,17.10
2023-04-09T07:07:10.842Z,17.10
2023-04-09T07:09:42.336Z,17.10
2023-04-09T07:12:13.700Z,17.10
2023-04-09T07:14:44.496Z,17.10
2023-04-09T07:17:16.239Z,17.10
2023-04-09T07:19:48.343Z,17.10
2023-04-09T07:22:16.712Z,17.10
2023-04-09T07:24:49.904Z,17.10
2023-04-09T07:27:20.377Z,17.10
2023-04-09T07:29:48.667Z,17.10
2023-04-09T07:32:19.752Z,17.10
2023-04-09T07:34:53.240Z,17.10
2023-04-09T07:37:27.016Z,17.10
2023-04-09T07:39:56.958Z,17.10
2023-04-09T07:42:25.708Z,17.10
2023-04-09T07:44:57.689Z,17.10
2023-04-09T07:50:14.436Z,17.10
2023-04-09T07:52:46.712Z,17.10
2023-04-09T07:55:18.719Z,17.10
2023-04-09T07:57:49.767Z,17.20
2023-04-09T08:00:21.597Z,17.20
2023-04-09T08:02:49.932Z,17.20
2023-04-09T08:05:20.301Z,17.20
2023-04-09T08:07:53.138Z,17.30
2023-04-09T08:10:21.967Z,17.30
2023-04-09T08:12:55.495Z,17.30
2023-04-09T08:15:25.913Z,17.30
2023-04-09T08:17:56.773Z,17.40
2023-04-09T08:20:27.592Z,17.30
2023-04-09T08:25:43.743Z,17.30
2023-04-09T08:28:16.480Z,17.30
2023-04-09T08:30:47.015Z,17.30
2023-04-09T08:33:14.915Z,17.30
2023-04-09T08:35:46.602Z,17.30
2023-04-09T08:38:18.543Z,17.30
2023-04-09T08:40:46.872Z,17.30
2023-04-09T08:43:21.285Z,17.30
2023-04-09T08:45:54.477Z,17.30
2023-04-09T08:48:26.458Z,17.30
2023-04-09T08:50:59.806Z,17.30
2023-04-09T08:53:32.015Z,17.30
2023-04-09T08:56:03.893Z,17.30
2023-04-09T09:01:29.034Z,17.30
2023-04-09T09:04:11.774Z,17.30
2023-04-09T09:06:46.058Z,17.30
2023-04-09T09:09:21.437Z,17.30
2023-04-09T09:11:56.166Z,17.30
2023-04-09T09:14:27.943Z,17.30
2023-04-09T09:17:06.499Z,17.30
2023-04-09T09:19:36.585Z,17.30
2023-04-09T09:22:08.365Z,17.30
2023-04-09T09:24:55.688Z,17.30
2023-04-09T09:27:41.961Z,17.30
2023-04-09T09:30:22.739Z,17.40
2023-04-09T09:33:15.650Z,17.40
2023-04-09T09:35:59.953Z,17.40
2023-04-09T09:38:31.345Z,17.40
2023-04-09T09:41:18.426Z,17.40
2023-04-09T09:43:49.081Z,17.40
2023-04-09T09:46:19.930Z,17.40
2023-04-09T09:48:52.376Z,17.40
2023-04-09T09:51:26.889Z,17.40
2023-04-09T09:54:16.747Z,17.40
2023-04-09T09:56:49.453Z,17.40
2023-04-09T09:59:29.017Z,17.50
2023-04-09T10:02:22.155Z,17.50
2023-04-09T10:05:00.782Z,17.50
2023-04-09T10:07:52.253Z,17.50
2023-04-09T10:10:25.550Z,17.50
2023-04-09T10:12:57.004Z,17.50
2023-04-09T10:15:27.048Z,17.50
2023-04-09T10:17:56.145Z,17.50
2023-04-09T10:20:34.934Z,17.60
2023-04-09T10:23:12.087Z,17.60
2023-04-09T10:25:46.276Z,17.60
2023-04-09T10:28:21.188Z,17.60
2023-04-09T10:30:51.648Z,17.60
2023-04-09T10:33:27.595Z,17.60
2023-04-09T10:36:14.688Z,17.60
2023-04-09T10:38:49.838Z,17.60
2023-04-09T10:44:29.368Z,17.70
2023-04-09T10:47:01.179Z,17.60
2023-04-09T10:49:40.796Z,17.70
2023-04-09T10:52:15.456Z,17.70
2023-04-09T10:55:02.326Z,17.70
2023-04-09T10:57:35.527Z,17.70
2023-04-09T11:03:24.027Z,17.70
2023-04-09T11:06:12.898Z,17.70
2023-04-09T11:08:45.127Z,17.70
2023-04-09T11:11:16.405Z,17.70
2023-04-09T11:13:47.154Z,17.70
2023-04-09T11:16:24.065Z,17.70
2023-04-09T11:19:02.000Z,17.80
2023-04-09T11:24:23.940Z,17.80
2023-04-09T11:26:52.324Z,17.80
2023-04-09T11:29:28.042Z,17.80
2023-04-09T11:31:58.276Z,17.80
2023-04-09T11:34:32.354Z,17.80
2023-04-09T11:37:04.803Z,17.80
2023-04-09T11:39:38.702Z,17.80
2023-04-09T11:42:09.340Z,17.80
2023-04-09T11:44:37.617Z,17.80
2023-04-09T11:47:08.109Z,17.80
2023-04-09T11:49:42.442Z,17.90
2023-04-09T11:52:10.830Z,17.90
2023-04-09T11:54:39.693Z,17.90
2023-04-09T11:57:16.663Z,17.90
2023-04-09T11:59:48.805Z,17.90
2023-04-09T12:02:21.965Z,17.90
2023-04-09T12:05:00.016Z,17.90
2023-04-09T12:07:44.216Z,17.90
2023-04-09T12:10:23.662Z,17.90
2023-04-09T12:12:55.113Z,17.90
2023-04-09T12:15:26.805Z,17.90
2023-04-09T12:18:01.278Z,18.00
2023-04-09T12:20:40.987Z,18.00
2023-04-09T12:23:12.393Z,18.00
2023-04-09T12:25:46.996Z,18.00
2023-04-09T12:28:19.142Z,18.00
2023-04-09T12:30:51.004Z,18.00
2023-04-09T12:33:22.945Z,18.00
2023-04-09T12:35:52.183Z,18.00
2023-04-09T12:38:24.906Z,18.10
2023-04-09T12:40:56.086Z,18.10
2023-04-09T12:43:26.773Z,18.10
2023-04-09T12:45:58.657Z,18.10
2023-04-09T12:48:27.866Z,18.10
2023-04-09T12:50:57.477Z,18.10
2023-04-09T12:53:26.873Z,18.10
2023-04-09T12:55:56.854Z,18.20
2023-04-09T12:58:25.648Z,18.10
2023-04-09T13:00:55.637Z,18.10
2023-04-09T13:03:27.531Z,18.20
2023-04-09T13:06:01.096Z,18.20
2023-04-09T13:08:30.965Z,18.20
2023-04-09T13:11:03.184Z,18.20
2023-04-09T13:13:35.356Z,18.20
2023-04-09T13:16:06.866Z,18.20
2023-04-09T13:18:37.633Z,18.20
2023-04-09T13:21:07.855Z,18.30
2023-04-09T13:23:38.023Z,18.30
2023-04-09T13:26:06.791Z,18.30
2023-04-09T13:28:38.826Z,18.30
2023-04-09T13:31:10.404Z,18.30
2023-04-09T13:33:43.586Z,18.30
2023-04-09T13:36:12.890Z,18.30
2023-04-09T13:38:45.802Z,18.30
2023-04-09T13:41:18.383Z,18.30
2023-04-09T13:43:51.574Z,18.40
2023-04-09T13:46:24.137Z,18.40
2023-04-09T13:48:57.426Z,18.40
2023-04-09T13:51:33.274Z,18.40
2023-04-09T13:54:05.897Z,18.40
2023-04-09T13:56:38.252Z,18.50
2023-04-09T13:59:10.150Z,18.40
2023-04-09T14:01:41.652Z,18.40
2023-04-09T14:04:15.637Z,18.50
2023-04-09T14:06:44.096Z,18.50
2023-04-09T14:09:17.863Z,18.50
2023-04-09T14:11:47.368Z,18.50
2023-04-09T14:14:17.999Z,18.50
2023-04-09T14:16:47.073Z,18.50
2023-04-09T14:19:17.517Z,18.50
2023-04-09T14:21:52.251Z,18.60
2023-04-09T14:24:30.620Z,18.60
2023-04-09T14:27:01.733Z,18.60
2023-04-09T14:29:34.684Z,18.60
2023-04-09T14:32:05.813Z,18.60
2023-04-09T14:34:36.643Z,18.60
2023-04-09T14:37:09.647Z,18.60
2023-04-09T14:39:39.510Z,18.60
2023-04-09T14:42:11.169Z,18.60
2023-04-09T14:44:41.461Z,18.60
2023-04-09T14:47:11.136Z,18.60
2023-04-09T14:49:39.285Z,18.60
2023-04-09T14:52:09.232Z,18.70
2023-04-09T14:54:40.869Z,18.70
2023-04-09T14:57:12.368Z,18.70
2023-04-09T14:59:44.210Z,18.70
2023-04-09T15:02:17.162Z,18.70
2023-04-09T15:04:47.373Z,18.70
2023-04-09T15:10:05.544Z,18.70
2023-04-09T15:12:36.983Z,18.70
2023-04-09T15:15:12.718Z,18.70
2023-04-09T15:17:39.637Z,18.70
2023-04-09T15:20:12.116Z,18.70
2023-04-09T15:22:47.928Z,18.70
2023-04-09T15:25:16.951Z,18.70
2023-04-09T15:30:44.465Z,18.80
2023-04-09T15:33:15.183Z,18.80
2023-04-09T15:35:45.363Z,18.80
2023-04-09T15:38:14.856Z,18.80
2023-04-09T15:40:42.841Z,18.80
2023-04-09T15:43:14.054Z,18.80
2023-04-09T15:48:34.671Z,18.80
2023-04-09T15:51:10.616Z,18.80
2023-04-09T15:53:41.638Z,18.90
2023-04-09T15:56:13.963Z,18.80
2023-04-09T15:58:45.329Z,18.80
2023-04-09T16:01:17.616Z,18.90
2023-04-09T16:03:57.330Z,18.80
2023-04-09T16:06:27.575Z,18.90
2023-04-09T16:08:58.955Z,18.90
2023-04-09T16:11:30.589Z,18.90
2023-04-09T16:13:59.936Z,18.90
2023-04-09T16:16:28.118Z,19.00
2023-04-09T16:18:58.042Z,18.90
2023-04-09T16:21:30.878Z,18.90
2023-04-09T16:24:14.124Z,18.90
2023-04-09T16:26:43.288Z,18.90
2023-04-09T16:29:14.471Z,19.00
2023-04-09T16:31:48.997Z,19.00
2023-04-09T16:34:22.254Z,19.00
2023-04-09T16:36:54.528Z,19.00
2023-04-09T16:39:25.961Z,19.10
2023-04-09T16:41:57.344Z,19.10
2023-04-09T16:44:28.173Z,19.10
2023-04-09T16:47:01.983Z,19.00
2023-04-09T16:49:32.163Z,19.10
2023-04-09T16:52:01.732Z,19.10
2023-04-09T16:54:33.531Z,19.10
2023-04-09T16:57:05.008Z,19.10
2023-04-09T16:59:36.258Z,19.10
2023-04-09T17:02:06.633Z,19.10
2023-04-09T17:04:39.737Z,19.10
2023-04-09T17:07:10.626Z,19.10
2023-04-09T17:09:42.089Z,19.10
2023-04-09T17:12:13.779Z,19.10
2023-04-09T17:14:47.294Z,19.10
2023-04-09T17:17:32.163Z,19.10
2023-04-09T17:20:04.430Z,19.10
2023-04-09T17:22:31.804Z,19.10
2023-04-09T17:25:07.154Z,19.20
2023-04-09T17:27:37.228Z,19.20
2023-04-09T17:30:05.950Z,19.20
2023-04-09T17:32:37.622Z,19.10
2023-04-09T17:35:10.857Z,19.20
2023-04-09T17:37:42.024Z,19.10
2023-04-09T17:40:13.445Z,19.20
2023-04-09T17:42:44.565Z,19.10
2023-04-09T17:45:12.054Z,19.10
2023-04-09T17:47:42.943Z,19.20
2023-04-09T17:50:14.598Z,19.20
2023-04-09T17:52:43.621Z,19.20
2023-04-09T17:55:15.734Z,19.20
2023-04-09T18:03:20.597Z,19.10
2023-04-09T18:05:52.265Z,19.20
2023-04-09T18:08:19.878Z,19.10
2023-04-09T18:11:11.845Z,19.20
2023-04-09T18:13:43.610Z,19.20
2023-04-09T18:16:16.721Z,19.20
2023-04-09T18:18:48.923Z,19.20
2023-04-09T18:21:16.549Z,19.30
2023-04-09T18:23:48.764Z,19.30
2023-04-09T18:26:18.701Z,19.30
2023-04-09T18:28:50.614Z,19.40
2023-04-09T18:31:23.870Z,19.40
2023-04-09T18:33:52.399Z,19.40
2023-04-09T18:36:22.610Z,19.40
2023-04-09T18:38:55.080Z,19.40
2023-04-09T18:41:25.584Z,19.50
2023-04-09T18:43:57.785Z,19.50
2023-04-09T18:49:10.479Z,19.50
2023-04-09T18:51:42.401Z,19.60
2023-04-09T18:54:12.750Z,19.60
2023-04-09T18:56:45.375Z,19.60
2023-04-09T18:59:15.319Z,19.60
2023-04-09T19:01:43.760Z,19.70
2023-04-09T19:04:12.141Z,19.70
2023-04-09T19:06:43.647Z,19.70
2023-04-09T19:09:13.933Z,19.70
2023-04-09T19:11:44.813Z,19.70
2023-04-09T19:14:12.711Z,19.70
2023-04-09T19:16:41.360Z,19.80
2023-04-09T19:19:14.212Z,19.80
2023-04-09T19:21:45.459Z,19.80
2023-04-09T19:29:43.325Z,19.80
2023-04-09T19:32:26.336Z,19.80
2023-04-09T19:34:56.743Z,19.80
2023-04-09T19:37:41.604Z,19.90
2023-04-09T19:40:19.631Z,19.90
2023-04-09T19:42:48.906Z,19.90
2023-04-09T19:45:20.768Z,19.90
2023-04-09T19:47:55.884Z,19.90
2023-04-09T19:50:26.238Z,19.90
2023-04-09T19:52:58.988Z,19.90
2023-04-09T19:55:30.514Z,19.90
2023-04-09T19:58:02.052Z,19.90
2023-04-09T20:00:31.496Z,19.90
2023-04-09T20:03:04.173Z,19.90
2023-04-09T20:05:37.462Z,19.90
2023-04-09T20:08:13.549Z,19.90
2023-04-09T20:10:48.731Z,19.90
2023-04-09T20:13:18.918Z,19.90
2023-04-09T20:15:50.059Z,20.00
2023-04-09T20:18:22.711Z,19.90
2023-04-09T20:20:52.889Z,19.90
2023-04-09T20:23:25.833Z,19.90
2023-04-09T20:26:01.071Z,19.90
2023-04-09T20:28:32.594Z,19.90
2023-04-09T20:31:08.078Z,19.90
2023-04-09T20:33:39.328Z,19.80
2023-04-09T20:36:19.055Z,19.80
2023-04-09T20:38:52.272Z,19.80
2023-04-09T20:41:22.309Z,19.90
2023-04-09T20:43:54.203Z,19.90
2023-04-09T20:46:25.521Z,20.00
2023-04-09T20:48:59.219Z,20.00
2023-04-09T20:51:31.338Z,20.10
2023-04-09T20:54:04.868Z,20.10
2023-04-09T20:56:34.599Z,20.20
2023-04-09T20:59:06.579Z,20.10
2023-04-09T21:01:38.238Z,20.20
2023-04-09T21:04:11.417Z,20.20
2023-04-09T21:06:41.464Z,20.30
2023-04-09T21:09:11.518Z,20.20
2023-04-09T21:11:41.124Z,20.10
2023-04-09T21:14:13.645Z,20.10
2023-04-09T21:16:42.821Z,20.10
2023-04-09T21:19:13.606Z,20.00
2023-04-09T21:21:42.794Z,20.00
2023-04-09T21:24:13.669Z,19.90
2023-04-09T21:29:18.617Z,19.80
2023-04-09T21:31:53.889Z,19.80
2023-04-09T21:34:25.592Z,19.70
2023-04-09T21:36:58.826Z,19.70
2023-04-09T21:39:28.794Z,19.70
2023-04-09T21:41:59.368Z,19.70
2023-04-09T21:44:30.811Z,19.60
2023-04-09T21:47:01.702Z,19.60
2023-04-09T21:49:30.319Z,19.60
2023-04-09T21:52:02.636Z,19.50
2023-04-09T21:54:33.929Z,19.50
2023-04-09T21:57:02.762Z,19.50
2023-04-09T21:59:31.847Z,19.40
2023-04-09T22:02:01.451Z,19.40
2023-04-09T22:04:29.867Z,19.40
2023-04-09T22:06:59.073Z,19.40
2023-04-09T22:09:29.630Z,19.30
2023-04-09T22:11:58.473Z,19.30
2023-04-09T22:14:32.727Z,19.30
2023-04-09T22:17:04.141Z,19.30
2023-04-09T22:19:36.631Z,19.30
2023-04-09T22:22:07.592Z,19.20
2023-04-09T22:24:36.480Z,19.20
2023-04-09T22:27:09.021Z,19.20
2023-04-09T22:29:39.666Z,19.20
2023-04-09T22:32:17.468Z,19.20
2023-04-09T22:34:47.871Z,19.10
2023-04-09T22:37:19.414Z,19.10
2023-04-09T22:39:51.512Z,19.10
2023-04-09T22:42:23.406Z,19.10
2023-04-09T22:45:02.252Z,19.10
2023-04-09T22:47:33.813Z,19.10
2023-04-09T22:50:03.686Z,19.10
2023-04-09T22:52:30.713Z,19.10
2023-04-09T22:55:04.927Z,19.10
2023-04-09T22:57:36.666Z,19.00
2023-04-09T23:00:05.075Z,19.00
2023-04-09T23:02:35.204Z,19.00
2023-04-09T23:05:06.342Z,19.00
2023-04-09T23:07:36.332Z,19.00
2023-04-09T23:10:05.136Z,18.90
2023-04-09T23:12:34.144Z,18.90
2023-04-09T23:15:04.800Z,19.00
2023-04-09T23:17:37.589Z,18.90
2023-04-09T23:20:09.054Z,18.90
2023-04-09T23:22:38.529Z,18.90
2023-04-09T23:25:13.189Z,18.90
2023-04-09T23:27:42.328Z,18.80
2023-04-09T23:30:10.883Z,18.90
2023-04-09T23:32:42.319Z,18.90
2023-04-09T23:35:11.917Z,18.90
2023-04-09T23:37:41.498Z,18.80
2023-04-09T23:40:17.331Z,18.80
2023-04-09T23:42:52.533Z,18.80
2023-04-09T23:45:33.749Z,18.80
2023-04-09T23:48:03.948Z,18.80
2023-04-09T23:50:35.859Z,18.80
2023-04-09T23:53:07.374Z,18.80
2023-04-09T23:55:41.117Z,18.80
2023-04-09T23:58:16.164Z,18.80
